Terminal Aerodrome Forecast
Issued by NWS Sterling, VA

Current Version | Previous Version | Text Only | Print | Product List | Glossary Off
Versions: 1 2 3 4 5 6 7 8 9 10 11 12 13 14 15 16 17 18 19 20 21

000
FTUS41 KLWX 240500
TAFIAD
TAF
KIAD 240524Z 2406/2512 32010KT P6SM SKC
      TEMPO 2406/2409 31012G22KT P6SM SKC
     FM241300 31012G21KT P6SM FEW150
     FM250000 31006KT P6SM FEW250=

USA.gov is the U.S. government's official web portal to all federal, state and local government web resources and services.